Time;durP1;ratioP1;P1;durP2;ratioP2;P2;SDS_P1;SDS_P2;PMS_P1;PMS_P2;Temp;Humidity;BMP_temperature;BMP_pressure;BME280_temperature;BME280_humidity;BME280_pressure;Samples;Min_cycle;Max_cycle;Signal;HPM_P1;HPM_P2
2020/12/25 00:01:32;;;;;;;2.12;0.88;;;;;;;4.49;74.60;99413.34;1770880;79;21209;-62
2020/12/25 00:04:01;;;;;;;1.47;0.45;;;;;;;4.52;74.54;99424.84;1801365;77;21125;-63
2020/12/25 00:06:34;;;;;;;1.42;0.40;;;;;;;4.46;74.66;99424.34;1787377;79;21482;-61
2020/12/25 00:09:04;;;;;;;1.72;0.47;;;;;;;4.42;74.89;99411.18;1782156;78;21206;-66
2020/12/25 00:11:36;;;;;;;2.65;0.90;;;;;;;4.39;74.98;99398.84;1779505;80;22296;-61
2020/12/25 00:14:06;;;;;;;2.00;0.50;;;;;;;4.39;75.04;99397.06;1794609;78;21177;-64
2020/12/25 00:16:34;;;;;;;1.57;0.37;;;;;;;4.48;74.97;99386.46;1785061;79;21155;-63
2020/12/25 00:19:04;;;;;;;2.52;0.60;;;;;;;4.54;74.85;99383.87;1786998;80;22093;-62
2020/12/25 00:21:33;;;;;;;3.17;0.55;;;;;;;4.55;74.83;99378.56;1811625;77;21509;-62
2020/12/25 00:24:04;;;;;;;1.72;0.53;;;;;;;4.50;74.97;99380.67;1789565;80;21205;-61
2020/12/25 00:26:34;;;;;;;2.55;0.80;;;;;;;4.45;75.13;99384.07;1807704;78;21171;-60
2020/12/25 00:29:04;;;;;;;2.17;0.75;;;;;;;4.42;75.29;99388.19;1809284;78;21132;-63
2020/12/25 00:31:35;;;;;;;1.92;0.55;;;;;;;4.43;75.25;99383.35;1804233;78;21163;-63
2020/12/25 00:34:07;;;;;;;1.95;0.60;;;;;;;4.50;75.10;99383.27;1784979;80;21219;-63
2020/12/25 00:36:45;;;;;;;1.92;0.60;;;;;;;4.58;75.04;99380.95;1829721;76;22776;-63
2020/12/25 00:39:16;;;;;;;2.02;0.72;;;;;;;4.60;74.97;99386.06;1830980;77;21140;-63
2020/12/25 00:41:50;;;;;;;1.55;0.50;;;;;;;4.56;75.01;99395.88;1835326;77;21355;-61
2020/12/25 00:44:22;;;;;;;2.40;0.90;;;;;;;4.53;75.11;99403.90;1824414;77;21026;-62
2020/12/25 00:46:50;;;;;;;2.52;0.78;;;;;;;4.46;75.22;99407.89;1831079;77;21089;-65
2020/12/25 00:49:19;;;;;;;3.30;0.88;;;;;;;4.47;75.31;99408.23;1833101;77;21765;-64
2020/12/25 00:51:48;;;;;;;1.90;0.53;;;;;;;4.52;75.16;99414.42;1834216;77;21101;-61
2020/12/25 00:54:19;;;;;;;5.47;1.10;;;;;;;4.55;75.07;99416.34;1832610;76;21350;-63
2020/12/25 00:56:55;;;;;;;2.42;0.68;;;;;;;4.55;75.12;99407.22;1831576;77;21164;-62
2020/12/25 00:59:28;;;;;;;2.85;0.88;;;;;;;4.52;75.23;99413.13;1834952;77;21168;-65
2020/12/25 01:01:55;;;;;;;3.30;1.05;;;;;;;4.48;75.35;99402.57;1831697;77;21156;-64
2020/12/25 01:04:25;;;;;;;7.50;0.72;;;;;;;4.50;75.36;99393.69;1829197;77;21153;-63
2020/12/25 01:06:53;;;;;;;2.20;0.62;;;;;;;4.58;75.18;99395.28;1831646;77;21386;-61
2020/12/25 01:09:20;;;;;;;3.10;0.80;;;;;;;4.65;75.09;99385.27;1839534;77;21108;-62
2020/12/25 01:11:50;;;;;;;3.25;1.00;;;;;;;4.67;75.12;99388.58;1823590;77;21179;-63
2020/12/25 01:14:20;;;;;;;2.10;0.80;;;;;;;4.62;75.20;99373.30;1828801;77;21184;-68
2020/12/25 01:16:48;;;;;;;3.55;0.85;;;;;;;4.58;75.32;99365.33;1820376;77;21159;-61
2020/12/25 01:19:16;;;;;;;4.22;1.05;;;;;;;4.59;75.59;99359.19;1785111;77;21323;-63
2020/12/25 01:21:45;;;;;;;3.37;1.02;;;;;;;4.65;75.29;99358.72;1823640;77;21161;-68
2020/12/25 01:24:15;;;;;;;2.27;0.90;;;;;;;4.72;75.23;99347.87;1773574;79;21211;-61
2020/12/25 01:26:42;;;;;;;5.33;0.95;;;;;;;4.72;75.20;99340.88;1780319;79;21566;-64
2020/12/25 01:29:12;;;;;;;3.87;0.98;;;;;;;4.64;75.33;99340.14;1800851;79;21108;-63
2020/12/25 01:33:29;;;;;;;2.62;0.95;;;;;;;4.61;75.72;99356.47;1751975;79;22668;-64
2020/12/25 01:36:01;;;;;;;3.92;1.32;;;;;;;4.55;75.78;99351.69;1731844;82;21108;-66
2020/12/25 01:38:29;;;;;;;2.75;0.90;;;;;;;4.64;75.65;99357.08;1737547;81;21392;-63
2020/12/25 01:40:57;;;;;;;3.10;0.95;;;;;;;4.72;75.50;99342.66;1741716;82;20999;-62
2020/12/25 01:43:25;;;;;;;2.98;1.10;;;;;;;4.73;75.46;99346.94;1737655;82;21184;-63
2020/12/25 01:45:57;;;;;;;1.70;0.70;;;;;;;4.68;75.65;99343.36;1739391;82;21140;-64
2020/12/25 01:48:24;;;;;;;4.17;1.50;;;;;;;4.63;75.87;99351.49;1732018;82;21185;-62
2020/12/25 01:50:53;;;;;;;3.17;0.85;;;;;;;4.65;75.94;99360.02;1710397;82;21369;-67
2020/12/25 01:53:21;;;;;;;2.95;1.10;;;;;;;4.71;75.91;99351.41;1724905;82;21192;-67
2020/12/25 01:55:52;;;;;;;4.28;1.10;;;;;;;4.73;75.86;99354.75;1734381;82;21211;-66
2020/12/25 01:58:19;;;;;;;4.83;1.42;;;;;;;4.70;76.08;99356.27;1738276;82;21176;-66
2020/12/25 02:00:49;;;;;;;3.85;1.10;;;;;;;4.64;76.25;99348.44;1711475;82;21173;-64
2020/12/25 02:03:18;;;;;;;3.87;1.22;;;;;;;4.65;76.41;99347.48;1735751;82;21199;-65
2020/12/25 02:05:46;;;;;;;4.22;1.25;;;;;;;4.71;76.30;99343.14;1738462;81;21777;-65
2020/12/25 02:08:14;;;;;;;3.55;1.12;;;;;;;4.75;76.22;99339.84;1737360;82;21459;-64
2020/12/25 02:10:42;;;;;;;3.62;1.32;;;;;;;4.76;76.26;99328.00;1732428;82;21449;-66
2020/12/25 02:13:12;;;;;;;9.10;1.22;;;;;;;4.71;76.41;99333.16;1735105;82;21132;-69
2020/12/25 02:15:47;;;;;;;4.45;1.75;;;;;;;4.68;76.64;99341.23;1733137;82;21329;-64
2020/12/25 02:18:16;;;;;;;4.53;1.32;;;;;;;4.71;76.68;99341.84;1731520;80;21184;-63
2020/12/25 02:20:46;;;;;;;4.35;1.95;;;;;;;4.78;76.57;99339.62;1733630;81;21200;-64
2020/12/25 02:23:14;;;;;;;4.10;1.32;;;;;;;4.80;76.65;99336.42;1732494;82;21188;-63
2020/12/25 02:25:42;;;;;;;6.00;1.98;;;;;;;4.75;76.75;99339.84;1734136;81;21828;-67
2020/12/25 02:28:12;;;;;;;4.83;1.87;;;;;;;4.72;76.98;99340.05;1735032;82;21264;-63
2020/12/25 02:30:39;;;;;;;4.37;2.15;;;;;;;4.73;77.03;99345.16;1733475;80;21113;-65
2020/12/25 02:33:07;;;;;;;5.22;2.02;;;;;;;4.81;76.93;99335.48;1728811;81;21137;-68
2020/12/25 02:35:37;;;;;;;5.90;2.55;;;;;;;4.88;76.85;99342.39;1680244;84;21133;-63
2020/12/25 02:38:05;;;;;;;4.58;2.22;;;;;;;4.89;76.87;99335.73;1681618;84;21160;-65
2020/12/25 02:40:32;;;;;;;5.28;2.10;;;;;;;4.86;76.83;99337.28;1685450;84;21349;-66
2020/12/25 02:43:02;;;;;;;4.70;1.92;;;;;;;4.81;77.15;99331.58;1681949;83;21247;-62
2020/12/25 02:45:31;;;;;;;5.47;2.50;;;;;;;4.84;77.12;99335.23;1687934;84;21133;-65
2020/12/25 02:47:59;;;;;;;5.28;2.22;;;;;;;4.89;77.03;99331.83;1682895;84;21659;-64
2020/12/25 02:50:29;;;;;;;4.53;2.17;;;;;;;4.93;77.03;99324.16;1682002;84;21196;-64
2020/12/25 02:52:57;;;;;;;6.22;3.33;;;;;;;4.90;77.16;99324.38;1682196;84;21218;-64
2020/12/25 02:55:25;;;;;;;5.87;2.60;;;;;;;4.86;77.29;99330.77;1688409;84;21193;-66
2020/12/25 02:57:54;;;;;;;6.25;3.08;;;;;;;4.89;77.31;99324.48;1691730;84;21180;-65
2020/12/25 03:00:26;;;;;;;5.50;2.20;;;;;;;4.95;77.15;99328.78;1688152;84;21188;-62
2020/12/25 03:02:54;;;;;;;5.95;2.72;;;;;;;5.01;77.06;99324.42;1682589;84;21252;-64
2020/12/25 03:05:24;;;;;;;9.03;4.08;;;;;;;4.99;77.06;99323.71;1682108;84;21217;-65
2020/12/25 03:07:52;;;;;;;8.10;3.58;;;;;;;4.94;77.23;99324.53;1684600;84;21259;-64
2020/12/25 03:10:21;;;;;;;6.83;2.47;;;;;;;4.91;77.33;99333.87;1714676;83;21153;-67
2020/12/25 03:12:49;;;;;;;7.78;3.15;;;;;;;4.93;77.39;99326.77;1732418;82;21635;-62
2020/12/25 03:15:17;;;;;;;9.38;3.62;;;;;;;5.01;77.26;99328.34;1716256;82;21645;-62
2020/12/25 03:17:44;;;;;;;7.90;4.10;;;;;;;5.06;77.17;99333.67;1727586;82;23564;-62
2020/12/25 03:20:12;;;;;;;5.92;3.02;;;;;;;5.08;77.14;99340.45;1732015;81;21135;-62
2020/12/25 03:22:40;;;;;;;7.95;3.37;;;;;;;5.05;77.20;99347.19;1730141;82;21600;-62
2020/12/25 03:25:08;;;;;;;10.15;4.97;;;;;;;5.03;77.30;99343.87;1669685;85;21157;-64
2020/12/25 03:27:35;;;;;;;9.45;4.15;;;;;;;5.06;77.35;99344.09;1692640;84;21204;-63
2020/12/25 03:30:04;;;;;;;8.65;3.83;;;;;;;5.20;77.01;99349.14;1684501;84;21209;-68
2020/12/25 03:32:33;;;;;;;12.15;4.70;;;;;;;5.20;77.01;99349.14;1678259;83;21199;-62
2020/12/25 03:35:03;;;;;;;9.80;5.00;;;;;;;5.15;77.14;99350.77;1696928;82;21175;-63
2020/12/25 03:37:32;;;;;;;9.53;3.95;;;;;;;5.10;77.27;99351.59;1698339;83;21565;-62
2020/12/25 03:39:59;;;;;;;8.28;5.00;;;;;;;5.10;77.30;99355.50;1691728;84;21182;-63
2020/12/25 03:42:27;;;;;;;8.93;4.83;;;;;;;5.20;77.26;99349.14;1692784;83;21206;-62
2020/12/25 03:44:56;;;;;;;11.95;5.45;;;;;;;5.28;77.13;99356.38;1694823;84;21643;-62
2020/12/25 03:47:29;;;;;;;9.65;5.03;;;;;;;5.31;77.15;99357.00;1661926;86;21222;-63
2020/12/25 03:49:56;;;;;;;12.03;5.37;;;;;;;5.32;77.22;99361.73;1679040;84;21655;-62
2020/12/25 03:52:26;;;;;;;10.98;4.90;;;;;;;5.30;77.32;99352.72;1691515;84;21572;-62
2020/12/25 03:54:56;;;;;;;11.60;6.42;;;;;;;5.34;77.39;99361.14;1680768;84;21395;-62
2020/12/25 03:57:24;;;;;;;12.45;5.60;;;;;;;5.44;77.23;99353.47;1676450;84;21264;-62
2020/12/25 03:59:54;;;;;;;14.18;5.70;;;;;;;5.47;77.15;99350.63;1690639;84;21195;-66
2020/12/25 04:02:22;;;;;;;14.55;7.55;;;;;;;5.50;77.16;99344.70;1675784;84;21168;-65
2020/12/25 04:04:51;;;;;;;15.65;6.90;;;;;;;5.49;77.19;99338.30;1686043;84;21240;-63
2020/12/25 04:07:21;;;;;;;16.23;7.97;;;;;;;5.46;77.33;99347.66;1679504;84;22276;-63
2020/12/25 04:09:53;;;;;;;12.03;6.70;;;;;;;5.57;76.94;99357.64;1690283;84;21208;-60
2020/12/25 04:12:22;;;;;;;14.13;7.28;;;;;;;5.57;76.94;99357.64;1683856;84;21224;-62
2020/12/25 04:14:50;;;;;;;14.47;7.10;;;;;;;5.63;77.00;99358.97;1682932;84;21248;-62
2020/12/25 04:17:20;;;;;;;12.28;6.80;;;;;;;5.68;76.77;99366.42;1653136;85;21248;-62
2020/12/25 04:19:50;;;;;;;15.35;6.97;;;;;;;5.68;76.77;99366.42;1678845;85;23036;-61
2020/12/25 04:22:20;;;;;;;15.05;8.20;;;;;;;5.65;76.92;99364.90;1701493;83;21572;-63
2020/12/25 04:24:49;;;;;;;14.35;7.12;;;;;;;5.64;76.94;99355.88;1700393;83;22376;-61
2020/12/25 04:27:19;;;;;;;16.95;8.10;;;;;;;5.69;76.74;99346.73;1703446;83;21595;-62
2020/12/25 04:29:49;;;;;;;15.08;7.75;;;;;;;5.76;76.62;99349.71;1698085;82;21190;-62
2020/12/25 04:32:18;;;;;;;13.00;7.35;;;;;;;5.79;76.57;99351.27;1689525;83;21861;-61
2020/12/25 04:34:47;;;;;;;13.75;7.78;;;;;;;5.79;76.61;99356.49;1687987;84;21891;-61
2020/12/25 04:37:19;;;;;;;14.18;8.48;;;;;;;5.76;76.63;99358.36;1690098;84;22360;-63
2020/12/25 04:39:49;;;;;;;17.65;8.58;;;;;;;5.73;76.64;99348.19;1688224;84;21185;-63
2020/12/25 04:42:19;;;;;;;14.07;8.40;;;;;;;5.77;76.56;99342.25;1684367;84;21192;-61
2020/12/25 04:44:50;;;;;;;13.55;8.25;;;;;;;5.82;76.41;99344.03;1687592;83;22616;-62
2020/12/25 04:47:19;;;;;;;18.65;8.33;;;;;;;5.81;76.35;99342.36;1682320;84;21223;-64
2020/12/25 04:49:50;;;;;;;14.87;8.20;;;;;;;5.76;76.49;99351.84;1683267;84;21941;-63
2020/12/25 04:52:17;;;;;;;16.15;9.35;;;;;;;5.74;76.60;99360.75;1690476;84;21162;-63
2020/12/25 04:54:49;;;;;;;14.20;9.03;;;;;;;5.74;76.61;99362.06;1681892;84;21188;-63
2020/12/25 04:57:18;;;;;;;16.40;8.68;;;;;;;5.84;76.34;99363.50;1690587;84;22536;-62
2020/12/25 04:59:47;;;;;;;18.75;10.03;;;;;;;5.87;76.31;99360.66;1688214;84;21224;-62
2020/12/25 05:02:19;;;;;;;19.35;10.35;;;;;;;5.87;76.31;99360.66;1673151;84;21188;-64
2020/12/25 05:04:48;;;;;;;22.52;10.93;;;;;;;5.81;76.48;99368.95;1675067;84;21125;-65
2020/12/25 05:07:19;;;;;;;19.85;12.03;;;;;;;5.82;76.76;99375.84;1680649;84;21176;-61
2020/12/25 05:09:50;;;;;;;19.37;11.15;;;;;;;5.90;76.46;99372.14;1726371;82;21440;-67
2020/12/25 05:12:18;;;;;;;16.07;9.25;;;;;;;5.90;76.46;99372.14;1708624;82;21184;-62
2020/12/25 05:14:47;;;;;;;19.67;10.63;;;;;;;5.96;76.17;99376.94;1730737;82;21508;-64
2020/12/25 05:17:17;;;;;;;20.15;11.18;;;;;;;5.94;75.96;99394.47;1731702;82;21196;-65
2020/12/25 05:19:47;;;;;;;21.00;12.37;;;;;;;5.85;76.49;99396.47;1682321;82;21635;-64
2020/12/25 05:22:17;;;;;;;26.65;12.93;;;;;;;5.85;76.49;99396.47;1678416;82;21393;-64
2020/12/25 05:24:46;;;;;;;25.12;11.05;;;;;;;5.85;76.43;99396.02;1734519;82;21212;-62
2020/12/25 05:27:16;;;;;;;17.45;9.63;;;;;;;5.89;76.34;99379.64;1738673;82;21556;-64
2020/12/25 05:29:47;;;;;;;18.23;9.68;;;;;;;5.94;76.27;99375.72;1724136;82;21187;-64
2020/12/25 05:32:16;;;;;;;21.15;11.40;;;;;;;5.95;76.22;99390.89;1700307;82;21113;-63
2020/12/25 05:34:44;;;;;;;21.85;10.85;;;;;;;5.93;76.24;99396.27;1694124;81;21471;-64
2020/12/25 05:37:13;;;;;;;20.70;11.18;;;;;;;5.89;76.14;99402.66;1720171;81;21203;-63
2020/12/25 05:39:44;;;;;;;25.00;11.80;;;;;;;5.89;76.14;99402.66;1720120;81;21220;-69
2020/12/25 05:42:13;;;;;;;22.05;12.47;;;;;;;5.96;76.26;99404.35;1741105;81;21203;-66
2020/12/25 05:44:47;;;;;;;19.42;10.20;;;;;;;5.99;76.07;99414.56;1732951;81;21780;-64
2020/12/25 05:47:16;;;;;;;15.75;9.95;;;;;;;5.98;76.22;99425.95;1743800;81;21203;-64
2020/12/25 05:49:45;;;;;;;16.77;11.25;;;;;;;5.93;76.36;99422.83;1746981;81;21148;-66
2020/12/25 05:52:13;;;;;;;19.55;10.98;;;;;;;5.94;76.58;99412.75;1746614;80;21195;-68
2020/12/25 05:54:42;;;;;;;19.80;10.18;;;;;;;5.94;76.58;99412.75;1746405;81;21176;-64
2020/12/25 05:57:11;;;;;;;17.87;10.82;;;;;;;6.04;76.16;99418.14;1745759;80;21170;-65
2020/12/25 05:59:39;;;;;;;20.55;11.15;;;;;;;6.07;76.03;99418.73;1715618;81;21365;-65
2020/12/25 06:02:07;;;;;;;17.48;9.68;;;;;;;6.08;76.04;99426.91;1739359;80;21211;-65
2020/12/25 06:04:38;;;;;;;25.37;11.78;;;;;;;6.08;75.98;99436.53;1741978;81;21211;-67
2020/12/25 06:07:12;;;;;;;21.37;11.03;;;;;;;6.03;76.01;99432.96;1741514;81;21567;-66
2020/12/25 06:09:44;;;;;;;21.68;11.88;;;;;;;6.05;76.01;99441.98;1717610;81;21188;-66
2020/12/25 06:12:16;;;;;;;19.35;11.08;;;;;;;6.11;75.80;99441.53;1737906;81;21202;-65
2020/12/25 06:14:49;;;;;;;17.90;10.32;;;;;;;6.18;75.69;99445.33;1740826;81;21614;-67
2020/12/25 06:17:20;;;;;;;17.62;10.55;;;;;;;6.23;75.84;99448.41;1746285;81;21188;-65
2020/12/25 06:20:05;;;;;;;21.27;10.82;;;;;;;6.23;75.95;99448.90;1743147;81;21140;-62
2020/12/25 06:22:38;;;;;;;19.23;9.28;;;;;;;6.19;75.89;99449.61;1744599;81;21196;-67
2020/12/25 06:25:11;;;;;;;16.73;10.58;;;;;;;6.21;75.74;99454.72;1746865;80;22271;-63
2020/12/25 06:27:50;;;;;;;15.10;9.13;;;;;;;6.27;75.34;99454.23;1740588;81;21179;-67
2020/12/25 06:30:25;;;;;;;19.35;11.45;;;;;;;6.34;75.34;99454.13;1746519;81;21223;-60
2020/12/25 06:32:57;;;;;;;18.15;10.43;;;;;;;6.36;75.19;99448.31;1751743;81;21215;-63
2020/12/25 06:35:35;;;;;;;18.07;9.78;;;;;;;6.32;75.05;99450.33;1728713;82;21619;-63
2020/12/25 06:38:11;;;;;;;18.27;10.58;;;;;;;6.32;75.05;99450.33;1728959;82;21361;-63
2020/12/25 06:40:40;;;;;;;19.12;11.28;;;;;;;6.29;75.30;99458.88;1717652;82;22072;-62
2020/12/25 06:43:20;;;;;;;18.75;9.95;;;;;;;6.35;75.41;99462.31;1720513;82;21450;-64
2020/12/25 06:45:52;;;;;;;17.52;10.55;;;;;;;6.44;74.93;99472.52;1723449;82;21264;-65
2020/12/25 06:48:23;;;;;;;15.98;10.00;;;;;;;6.50;75.05;99482.02;1720959;82;21212;-61
2020/12/25 06:50:56;;;;;;;19.00;11.12;;;;;;;6.48;74.80;99481.32;1731609;82;23059;-61
2020/12/25 06:53:42;;;;;;;21.23;10.08;;;;;;;6.42;75.13;99475.28;1723698;82;21552;-63
2020/12/25 06:56:21;;;;;;;16.73;9.85;;;;;;;6.42;75.13;99475.28;1726180;82;21261;-64
2020/12/25 06:58:53;;;;;;;19.70;10.03;;;;;;;6.44;74.71;99481.22;1719525;82;21156;-62
2020/12/25 07:01:44;;;;;;;19.07;10.53;;;;;;;6.51;74.64;99477.65;1718556;82;21213;-64
2020/12/25 07:04:29;;;;;;;19.62;9.85;;;;;;;6.60;74.60;99478.71;1721574;82;21383;-65
2020/12/25 07:07:01;;;;;;;17.23;9.55;;;;;;;6.61;74.54;99483.00;1712327;81;21208;-63
2020/12/25 07:09:40;;;;;;;20.62;10.48;;;;;;;6.59;74.52;99489.66;1723949;82;21672;-65
2020/12/25 07:12:16;;;;;;;16.73;9.38;;;;;;;6.55;74.55;99486.91;1721488;82;21196;-61
2020/12/25 07:14:43;;;;;;;17.15;9.93;;;;;;;6.54;74.65;99499.63;1721987;82;21208;-61
2020/12/25 07:17:11;;;;;;;15.20;9.38;;;;;;;6.59;74.52;99501.87;1723976;82;21212;-62
2020/12/25 07:19:42;;;;;;;20.15;10.53;;;;;;;6.69;74.53;99494.97;1728641;82;21188;-62
2020/12/25 07:22:10;;;;;;;15.98;8.55;;;;;;;6.78;74.24;99494.27;1719373;82;21195;-63
2020/12/25 07:24:40;;;;;;;21.45;9.23;;;;;;;6.83;73.99;99503.89;1719743;82;21239;-64
2020/12/25 07:27:10;;;;;;;20.65;11.48;;;;;;;6.84;74.16;99506.02;1726447;82;21583;-63
2020/12/25 07:29:40;;;;;;;17.57;10.18;;;;;;;6.84;73.97;99513.41;1718147;82;23388;-61
2020/12/25 07:32:12;;;;;;;17.87;10.28;;;;;;;6.81;73.91;99517.56;1711365;82;21234;-61
2020/12/25 07:34:40;;;;;;;14.28;8.48;;;;;;;6.86;73.83;99508.06;1725667;82;21211;-60
2020/12/25 07:37:12;;;;;;;18.60;8.80;;;;;;;6.95;73.73;99514.34;1729537;81;22358;-61
2020/12/25 07:39:39;;;;;;;14.95;9.48;;;;;;;6.99;73.37;99517.06;1733362;82;21211;-63
2020/12/25 07:42:10;;;;;;;15.13;9.05;;;;;;;6.98;73.38;99514.93;1736674;82;22940;-62
2020/12/25 07:44:39;;;;;;;16.40;9.43;;;;;;;6.96;73.40;99520.77;1732028;82;21263;-61
2020/12/25 07:47:09;;;;;;;15.43;8.53;;;;;;;6.95;73.43;99523.02;1679244;82;21144;-61
2020/12/25 07:49:42;;;;;;;16.20;9.18;;;;;;;6.93;73.38;99538.00;1731085;82;21141;-64
2020/12/25 07:52:11;;;;;;;14.33;8.93;;;;;;;6.97;73.33;99543.82;1725741;82;21161;-62
2020/12/25 07:54:40;;;;;;;16.93;8.93;;;;;;;7.04;73.11;99543.69;1729069;82;21240;-60
2020/12/25 07:57:10;;;;;;;13.68;8.63;;;;;;;7.08;72.70;99549.05;1724252;82;21853;-58
2020/12/25 07:59:40;;;;;;;13.80;8.25;;;;;;;7.08;72.70;99549.05;1726467;82;21650;-62
2020/12/25 08:02:10;;;;;;;15.08;8.80;;;;;;;7.06;73.17;99562.25;1696599;82;21661;-67
2020/12/25 08:04:40;;;;;;;15.00;9.43;;;;;;;7.06;73.17;99562.25;1700235;82;21172;-67
2020/12/25 08:07:09;;;;;;;17.02;9.68;;;;;;;7.04;73.06;99559.37;1722600;81;22090;-64
2020/12/25 08:09:38;;;;;;;17.05;8.78;;;;;;;7.01;73.23;99561.78;1725627;82;21224;-65
2020/12/25 08:12:13;;;;;;;16.10;7.80;;;;;;;7.06;73.08;99567.93;1721326;82;21167;-65
2020/12/25 08:14:42;;;;;;;11.33;8.25;;;;;;;7.16;72.85;99564.97;1726533;82;21270;-61
2020/12/25 08:17:14;;;;;;;15.10;8.80;;;;;;;7.24;72.61;99560.42;1727844;82;21563;-62
2020/12/25 08:19:46;;;;;;;13.53;8.15;;;;;;;7.27;72.48;99556.75;1727849;80;21332;-62
2020/12/25 08:22:16;;;;;;;15.13;8.55;;;;;;;7.24;72.50;99560.42;1728604;82;21512;-62
2020/12/25 08:24:45;;;;;;;14.98;8.50;;;;;;;7.18;72.36;99563.06;1725975;82;21535;-60
2020/12/25 08:27:17;;;;;;;15.40;8.38;;;;;;;7.11;72.58;99560.58;1726600;82;21609;-59
2020/12/25 08:29:54;;;;;;;14.23;8.80;;;;;;;7.10;72.67;99567.23;1729881;82;21191;-59
2020/12/25 08:32:23;;;;;;;14.30;7.95;;;;;;;7.08;72.54;99559.52;1725815;82;21992;-60
2020/12/25 08:35:18;;;;;;;14.18;8.20;;;;;;;7.13;72.51;99574.83;1729619;81;21493;-62
2020/12/25 08:38:03;;;;;;;17.05;8.28;;;;;;;7.15;72.29;99572.45;1728770;82;21200;-60
2020/12/25 08:40:36;;;;;;;20.02;9.05;;;;;;;7.09;72.43;99584.70;1732707;80;21124;-61
2020/12/25 08:43:14;;;;;;;14.00;7.85;;;;;;;7.04;72.58;99583.78;1727772;82;21084;-59
2020/12/25 08:46:00;;;;;;;14.58;7.67;;;;;;;7.02;72.64;99580.91;1733643;82;21200;-61
2020/12/25 08:48:30;;;;;;;14.53;7.83;;;;;;;7.02;72.55;99579.60;1736237;82;21172;-61
2020/12/25 08:51:13;;;;;;;16.35;8.30;;;;;;;7.10;72.47;99575.91;1730153;82;21292;-60
2020/12/25 08:53:53;;;;;;;12.68;7.70;;;;;;;7.18;72.44;99573.53;1729795;82;21648;-61
2020/12/25 08:56:22;;;;;;;12.10;7.37;;;;;;;7.29;72.28;99571.84;1736504;82;21120;-64
2020/12/25 08:59:02;;;;;;;12.23;8.05;;;;;;;7.29;72.08;99572.66;1730948;82;21520;-62
2020/12/25 09:12:04;;;;;;;10.20;5.92;;;;;;;7.25;72.17;99579.11;1793518;75;22771;-62
2020/12/25 09:14:33;;;;;;;10.32;5.85;;;;;;;7.29;71.86;99577.90;1756097;80;21773;-61
2020/12/25 09:17:00;;;;;;;12.00;5.72;;;;;;;7.38;71.69;99577.19;1760007;80;21209;-60
2020/12/25 09:19:30;;;;;;;11.18;6.20;;;;;;;7.43;71.25;99573.72;1704386;83;21281;-58
2020/12/25 09:21:58;;;;;;;11.50;7.50;;;;;;;7.43;71.13;99582.03;1710406;81;21256;-60
2020/12/25 09:24:26;;;;;;;17.07;9.53;;;;;;;7.41;71.12;99577.41;1713677;82;21210;-61
2020/12/25 09:27:03;;;;;;;14.47;7.95;;;;;;;7.39;71.23;99582.76;1872835;74;23189;-60
2020/12/25 09:29:31;;;;;;;15.70;7.42;;;;;;;7.35;71.34;99577.42;1786350;78;21195;-58
2020/12/25 09:32:01;;;;;;;10.95;6.80;;;;;;;7.36;71.41;99575.63;1782740;78;21417;-61
2020/12/25 09:34:32;;;;;;;9.70;5.72;;;;;;;7.44;71.19;99580.60;1778370;78;21191;-61
2020/12/25 09:37:04;;;;;;;15.20;5.47;;;;;;;7.59;70.85;99581.16;1777848;78;21460;-58
2020/12/25 09:39:33;;;;;;;12.43;6.35;;;;;;;7.69;70.40;99577.81;1777580;79;21223;-62
2020/12/25 09:42:02;;;;;;;11.88;6.42;;;;;;;7.71;70.15;99577.21;1817802;77;21238;-64
2020/12/25 09:44:32;;;;;;;12.80;7.37;;;;;;;7.71;70.34;99581.14;1789726;78;21322;-63
2020/12/25 09:47:01;;;;;;;12.47;7.30;;;;;;;7.74;70.38;99576.97;1782072;78;21202;-61
2020/12/25 09:49:29;;;;;;;10.55;7.30;;;;;;;7.78;70.25;99586.22;1818824;77;21203;-63
2020/12/25 09:52:04;;;;;;;14.80;7.17;;;;;;;7.79;70.26;99577.42;1788053;78;21217;-59
2020/12/25 09:54:31;;;;;;;13.13;7.53;;;;;;;7.78;70.01;99575.29;1781255;78;21745;-59
2020/12/25 09:57:02;;;;;;;11.35;6.05;;;;;;;7.82;70.19;99569.32;1776277;79;21388;-58
2020/12/25 09:59:31;;;;;;;11.83;7.47;;;;;;;7.92;69.87;99567.61;1810160;77;21163;-61
2020/12/25 10:01:59;;;;;;;10.85;6.85;;;;;;;8.01;69.64;99569.95;1812867;78;21168;-61
2020/12/25 10:04:26;;;;;;;13.48;7.47;;;;;;;8.06;69.43;99570.88;1784263;78;21813;-71
2020/12/25 10:06:58;;;;;;;15.78;7.40;;;;;;;8.05;69.40;99571.34;1787539;78;21139;-61
2020/12/25 10:09:28;;;;;;;14.47;6.97;;;;;;;8.04;69.43;99572.81;1792315;78;21512;-64
2020/12/25 10:11:57;;;;;;;13.03;7.20;;;;;;;8.02;69.50;99570.77;1763116;78;21175;-63
2020/12/25 10:14:28;;;;;;;16.65;9.28;;;;;;;8.00;69.44;99571.74;1789787;78;21196;-63
2020/12/25 10:16:56;;;;;;;15.48;8.18;;;;;;;7.97;69.54;99560.69;1789147;78;21791;-61
2020/12/25 10:19:24;;;;;;;9.18;5.87;;;;;;;7.99;69.51;99565.31;1795354;78;21424;-61
2020/12/25 10:21:55;;;;;;;13.35;8.25;;;;;;;8.07;69.37;99568.14;1776896;78;22102;-61
2020/12/25 10:24:23;;;;;;;14.78;7.97;;;;;;;8.11;69.27;99560.85;1787876;78;21203;-63
2020/12/25 10:26:51;;;;;;;12.00;7.33;;;;;;;8.11;69.39;99556.92;1769250;79;21191;-63
2020/12/25 10:29:20;;;;;;;12.33;7.00;;;;;;;8.09;69.36;99543.95;1760849;79;21190;-65
2020/12/25 10:31:51;;;;;;;16.20;7.17;;;;;;;8.10;69.48;99548.70;1764631;79;21195;-63
2020/12/25 10:34:20;;;;;;;14.20;7.03;;;;;;;8.08;69.24;99545.38;1764521;79;21199;-63
2020/12/25 10:36:48;;;;;;;16.17;6.67;;;;;;;8.11;69.37;99549.06;1761663;79;21211;-63
2020/12/25 10:39:16;;;;;;;15.15;7.62;;;;;;;8.22;69.20;99551.63;1750761;80;21231;-62
2020/12/25 10:41:47;;;;;;;9.40;4.97;;;;;;;8.31;69.03;99557.39;1787936;78;21183;-65
2020/12/25 10:44:15;;;;;;;13.58;6.83;;;;;;;8.36;68.66;99553.09;1793033;78;21195;-63
2020/12/25 10:46:44;;;;;;;12.63;6.08;;;;;;;8.34;68.52;99549.28;1791926;78;21563;-62
2020/12/25 10:49:13;;;;;;;12.23;5.62;;;;;;;8.34;68.51;99552.39;1777663;78;21159;-61
2020/12/25 10:51:47;;;;;;;9.28;5.30;;;;;;;8.32;68.52;99549.89;1762932;80;21527;-63
2020/12/25 10:54:15;;;;;;;9.95;5.67;;;;;;;8.37;67.91;99545.55;1757454;79;21152;-63
2020/12/25 10:56:42;;;;;;;11.45;5.83;;;;;;;8.45;67.75;99561.50;1767360;79;21113;-62
2020/12/25 10:59:12;;;;;;;13.50;6.78;;;;;;;8.48;67.53;99560.42;1765533;79;21523;-63
2020/12/25 11:01:46;;;;;;;12.60;7.83;;;;;;;8.46;67.80;99563.66;1773182;79;21413;-62
2020/12/25 11:04:14;;;;;;;11.75;6.17;;;;;;;8.41;67.31;99572.37;1776953;79;21166;-64
2020/12/25 11:06:44;;;;;;;11.08;6.45;;;;;;;8.34;67.78;99578.60;1770249;79;21258;-62
2020/12/25 11:09:15;;;;;;;11.50;5.33;;;;;;;8.30;67.62;99575.38;1772608;79;21226;-63
2020/12/25 11:11:44;;;;;;;10.85;5.42;;;;;;;8.28;67.68;99587.79;1771978;79;21356;-64
2020/12/25 11:14:11;;;;;;;14.05;6.42;;;;;;;8.33;67.69;99586.92;1770429;79;21131;-62
2020/12/25 11:16:41;;;;;;;9.05;5.20;;;;;;;8.36;67.18;99592.41;1791924;78;21176;-63
2020/12/25 11:19:11;;;;;;;11.97;5.40;;;;;;;8.30;67.30;99604.21;1757362;80;21216;-63
2020/12/25 11:21:43;;;;;;;10.63;5.67;;;;;;;8.25;67.54;99607.70;1759720;80;21168;-60
2020/12/25 11:24:16;;;;;;;11.80;6.05;;;;;;;8.17;67.81;99603.11;1761149;80;22042;-63
2020/12/25 11:26:44;;;;;;;10.15;5.60;;;;;;;8.11;68.08;99605.40;1791032;78;21206;-64
2020/12/25 11:29:12;;;;;;;9.53;5.33;;;;;;;8.09;68.33;99599.46;1788652;78;21095;-62
2020/12/25 11:31:42;;;;;;;7.83;4.30;;;;;;;8.17;67.82;99591.80;1755974;81;21127;-62
2020/12/25 11:34:10;;;;;;;9.85;5.95;;;;;;;8.16;67.55;99590.95;1737862;80;21407;-65
2020/12/25 11:36:42;;;;;;;8.50;4.90;;;;;;;8.07;67.35;99589.10;1787756;80;22810;-65
2020/12/25 11:39:10;;;;;;;11.10;5.00;;;;;;;7.97;67.49;99592.95;1746513;80;21150;-62
2020/12/25 11:41:37;;;;;;;10.60;5.75;;;;;;;7.90;67.96;99593.11;1785966;78;21617;-63
2020/12/25 11:44:05;;;;;;;10.68;5.30;;;;;;;7.90;68.33;99588.33;1790173;78;21167;-67
2020/12/25 11:46:33;;;;;;;8.60;4.72;;;;;;;7.96;68.07;99598.31;1761644;80;21177;-63
2020/12/25 11:49:06;;;;;;;9.03;4.25;;;;;;;8.05;67.47;99604.09;1746381;80;21213;-58
2020/12/25 11:51:35;;;;;;;12.58;5.72;;;;;;;8.14;67.48;99613.02;1757976;79;21191;-64
2020/12/25 11:54:07;;;;;;;8.58;5.17;;;;;;;8.18;66.72;99618.34;1764232;79;21119;-60
2020/12/25 11:56:37;;;;;;;10.63;4.90;;;;;;;8.14;66.62;99616.95;1749493;80;21565;-60
2020/12/25 11:59:07;;;;;;;7.25;3.95;;;;;;;8.05;66.62;99613.75;1765630;79;21139;-62
2020/12/25 12:01:37;;;;;;;8.98;5.05;;;;;;;8.09;66.48;99605.52;1794336;78;21321;-62